Time;durP1;ratioP1;P1;durP2;ratioP2;P2;SDS_P1;SDS_P2;PMS_P1;PMS_P2;Temp;Humidity;BMP_temperature;BMP_pressure;BME280_temperature;BME280_humidity;BME280_pressure;Samples;Min_cycle;Max_cycle;Signal;HPM_P1;HPM_P2
2022/05/16 00:02:09;;;;;;;19.37;6.50;;;;;;;;;;5094222;28;20451;-74
2022/05/16 00:04:38;;;;;;;15.73;5.77;;;;;;;;;;5094755;28;20445;-74
2022/05/16 00:07:06;;;;;;;19.30;6.73;;;;;;;;;;5094206;28;20442;-73
2022/05/16 00:09:33;;;;;;;18.13;6.70;;;;;;;;;;5094054;28;20487;-74
2022/05/16 00:12:01;;;;;;;16.87;6.33;;;;;;;;;;5094043;28;20950;-74
2022/05/16 00:14:28;;;;;;;16.90;5.93;;;;;;;;;;5094201;28;20438;-74
2022/05/16 00:16:56;;;;;;;17.77;6.23;;;;;;;;;;5094109;28;20470;-74
2022/05/16 00:19:24;;;;;;;17.73;6.20;;;;;;;;;;5093913;28;20453;-74
2022/05/16 00:21:53;;;;;;;16.50;6.40;;;;;;;;;;5094070;28;20443;-74
2022/05/16 00:24:26;;;;;;;16.83;6.57;;;;;;;;;;5093934;28;20448;-74
2022/05/16 00:26:53;;;;;;;16.80;6.20;;;;;;;;;;5094077;28;20454;-74
2022/05/16 00:29:21;;;;;;;19.57;6.70;;;;;;;;;;5093003;28;20831;-74
2022/05/16 00:31:48;;;;;;;16.50;5.80;;;;;;;;;;5093663;28;20445;-74
2022/05/16 00:34:16;;;;;;;17.20;6.10;;;;;;;;;;5093886;28;20449;-74
2022/05/16 00:36:47;;;;;;;17.67;6.60;;;;;;;;;;5093533;28;20445;-74
2022/05/16 00:39:16;;;;;;;20.93;7.33;;;;;;;;;;5093329;28;20443;-74
2022/05/16 00:41:44;;;;;;;17.27;7.10;;;;;;;;;;5093348;28;20434;-74
2022/05/16 00:44:12;;;;;;;18.43;7.10;;;;;;;;;;5093391;28;20451;-74
2022/05/16 00:46:40;;;;;;;16.47;5.97;;;;;;;;;;5093357;28;20448;-74
2022/05/16 00:49:09;;;;;;;18.00;6.70;;;;;;;;;;5093384;28;20450;-74
2022/05/16 00:51:39;;;;;;;16.63;5.73;;;;;;;;;;5093020;28;20441;-74
2022/05/16 00:54:09;;;;;;;17.23;7.37;;;;;;;;;;5093390;28;20444;-74
2022/05/16 00:56:39;;;;;;;15.40;5.80;;;;;;;;;;5093263;28;20438;-74
2022/05/16 00:59:06;;;;;;;16.60;6.50;;;;;;;;;;5093191;28;20452;-74
2022/05/16 01:07:04;;;;;;;20.50;6.10;;;;;;;;;;5093385;28;20482;-74
2022/05/16 01:09:32;;;;;;;17.83;6.60;;;;;;;;;;5092980;28;21005;-74
2022/05/16 01:12:02;;;;;;;27.67;7.63;;;;;;;;;;5092868;28;20945;-74
2022/05/16 01:14:44;;;;;;;24.63;7.90;;;;;;;;;;5092854;28;20526;-74
2022/05/16 01:17:11;;;;;;;20.60;7.60;;;;;;;;;;5093022;28;20476;-74
2022/05/16 01:19:39;;;;;;;31.23;7.27;;;;;;;;;;5092781;28;20479;-74
2022/05/16 01:22:08;;;;;;;21.00;7.90;;;;;;;;;;5092892;28;20438;-74
2022/05/16 01:24:40;;;;;;;18.80;7.47;;;;;;;;;;5092792;28;20436;-74
2022/05/16 01:27:07;;;;;;;17.87;7.57;;;;;;;;;;5092681;28;20470;-74
2022/05/16 01:29:35;;;;;;;21.80;6.73;;;;;;;;;;5091941;28;20487;-74
2022/05/16 01:32:02;;;;;;;19.23;7.00;;;;;;;;;;5092520;28;21098;-74
2022/05/16 01:34:30;;;;;;;18.87;7.47;;;;;;;;;;5093079;28;20447;-74
2022/05/16 01:36:58;;;;;;;17.33;6.10;;;;;;;;;;5092545;28;20480;-74
2022/05/16 01:39:25;;;;;;;19.77;6.97;;;;;;;;;;5092345;28;20443;-74
2022/05/16 01:41:54;;;;;;;26.70;7.77;;;;;;;;;;5092451;28;20447;-74
2022/05/16 01:44:22;;;;;;;18.77;6.73;;;;;;;;;;5092271;28;20449;-74
2022/05/16 01:46:50;;;;;;;17.30;6.40;;;;;;;;;;5092599;28;20433;-74
2022/05/16 01:49:17;;;;;;;18.27;7.10;;;;;;;;;;5092300;28;20440;-74
2022/05/16 01:51:44;;;;;;;61.00;9.90;;;;;;;;;;5092252;28;20452;-74
2022/05/16 01:54:12;;;;;;;74.20;9.37;;;;;;;;;;5092435;28;20452;-74
2022/05/16 01:56:40;;;;;;;43.33;7.40;;;;;;;;;;5092171;28;20818;-74
2022/05/16 01:59:10;;;;;;;97.28;9.77;;;;;;;;;;5092104;28;20537;-74
2022/05/16 02:01:37;;;;;;;78.43;9.80;;;;;;;;;;5091819;28;20203;-74
2022/05/16 02:04:05;;;;;;;50.78;7.88;;;;;;;;;;5092662;28;20454;-74
2022/05/16 02:06:32;;;;;;;21.27;6.35;;;;;;;;;;5092217;28;20228;-74
2022/05/16 02:09:00;;;;;;;16.87;6.13;;;;;;;;;;5092057;28;20208;-74
2022/05/16 02:11:27;;;;;;;16.83;6.18;;;;;;;;;;5091528;28;20528;-74
2022/05/16 02:13:55;;;;;;;17.27;6.90;;;;;;;;;;5092443;28;20565;-74
2022/05/16 02:16:24;;;;;;;16.27;6.07;;;;;;;;;;5092049;28;20452;-74
2022/05/16 02:18:51;;;;;;;20.92;7.13;;;;;;;;;;5091887;28;20439;-74
2022/05/16 02:26:49;;;;;;;16.20;5.53;;;;;;;;;;5092128;28;20855;-74
2022/05/16 02:29:18;;;;;;;17.95;6.43;;;;;;;;;;5091682;28;20840;-73
2022/05/16 02:31:47;;;;;;;19.13;6.55;;;;;;;;;;5092108;28;20229;-74
2022/05/16 02:34:15;;;;;;;22.17;6.87;;;;;;;;;;5091726;28;20197;-74
2022/05/16 02:36:42;;;;;;;20.27;7.03;;;;;;;;;;5091681;28;20487;-74
2022/05/16 02:39:10;;;;;;;29.07;8.20;;;;;;;;;;5091678;28;20285;-74
2022/05/16 02:41:37;;;;;;;50.07;9.60;;;;;;;;;;5091584;28;20454;-74
2022/05/16 02:44:05;;;;;;;17.15;6.25;;;;;;;;;;5091767;28;20786;-74
2022/05/16 02:46:32;;;;;;;16.87;6.53;;;;;;;;;;5091716;28;20568;-74
2022/05/16 02:49:03;;;;;;;18.37;7.10;;;;;;;;;;5091623;28;20443;-74
2022/05/16 02:51:30;;;;;;;18.43;6.53;;;;;;;;;;5091347;28;20490;-74
2022/05/16 02:53:58;;;;;;;17.43;6.83;;;;;;;;;;5091585;28;20439;-74
2022/05/16 02:56:26;;;;;;;19.13;7.20;;;;;;;;;;5091679;28;20869;-74
2022/05/16 02:58:53;;;;;;;17.02;6.13;;;;;;;;;;5091708;28;20431;-74
2022/05/16 03:01:21;;;;;;;21.00;6.70;;;;;;;;;;5091504;28;20303;-74
2022/05/16 03:03:48;;;;;;;17.60;6.43;;;;;;;;;;5091653;28;20273;-74
2022/05/16 03:06:18;;;;;;;18.33;6.00;;;;;;;;;;5091931;28;20193;-74
2022/05/16 03:08:46;;;;;;;18.20;7.23;;;;;;;;;;5091571;28;20207;-74
2022/05/16 03:11:13;;;;;;;18.40;7.10;;;;;;;;;;5091521;28;20476;-74
2022/05/16 03:13:41;;;;;;;20.10;7.50;;;;;;;;;;5091632;28;20193;-74
2022/05/16 03:16:08;;;;;;;16.67;6.57;;;;;;;;;;5091583;28;20455;-74
2022/05/16 03:18:36;;;;;;;16.90;6.80;;;;;;;;;;5091497;28;20479;-74
2022/05/16 03:21:03;;;;;;;17.20;7.00;;;;;;;;;;5091698;28;20498;-74
2022/05/16 03:23:33;;;;;;;19.07;6.67;;;;;;;;;;5091080;28;20443;-74
2022/05/16 03:26:00;;;;;;;26.97;7.60;;;;;;;;;;5095145;28;20451;-74
2022/05/16 03:28:29;;;;;;;21.83;6.90;;;;;;;;;;5094628;28;20625;-74
2022/05/16 03:30:57;;;;;;;17.97;6.80;;;;;;;;;;5094835;28;20479;-74
2022/05/16 03:33:25;;;;;;;23.17;7.23;;;;;;;;;;5094724;28;20441;-74
2022/05/16 03:35:55;;;;;;;30.27;8.07;;;;;;;;;;5095003;28;20430;-74
2022/05/16 03:41:11;;;;;;;68.30;10.37;;;;;;;;;;5094779;28;20566;-74
2022/05/16 03:43:39;;;;;;;77.47;11.40;;;;;;;;;;5094584;28;20451;-74
2022/05/16 03:46:07;;;;;;;29.17;7.17;;;;;;;;;;5094961;28;20469;-74
2022/05/16 03:48:35;;;;;;;30.47;7.93;;;;;;;;;;5094640;28;20449;-74
2022/05/16 03:51:03;;;;;;;125.33;12.77;;;;;;;;;;5094389;28;20488;-74
2022/05/16 03:53:31;;;;;;;43.43;8.73;;;;;;;;;;5094129;28;20440;-74
2022/05/16 03:55:58;;;;;;;87.97;11.23;;;;;;;;;;5094394;28;20438;-74
2022/05/16 03:58:28;;;;;;;138.97;12.00;;;;;;;;;;5094326;28;20450;-74
2022/05/16 04:00:56;;;;;;;58.60;9.53;;;;;;;;;;5094413;28;20449;-74
2022/05/16 04:03:24;;;;;;;51.90;8.33;;;;;;;;;;5093996;28;20452;-74
2022/05/16 04:05:51;;;;;;;52.73;9.53;;;;;;;;;;5094087;28;20961;-74
2022/05/16 04:08:19;;;;;;;85.07;12.87;;;;;;;;;;5094597;28;20445;-75
2022/05/16 04:10:46;;;;;;;40.70;9.73;;;;;;;;;;5094083;28;20477;-74
2022/05/16 04:13:14;;;;;;;20.27;8.07;;;;;;;;;;5094139;28;20450;-74
2022/05/16 04:15:43;;;;;;;21.30;9.00;;;;;;;;;;5094001;28;20445;-74
2022/05/16 04:18:10;;;;;;;19.13;7.90;;;;;;;;;;5093705;28;21002;-75
2022/05/16 04:20:38;;;;;;;17.27;7.57;;;;;;;;;;5093909;28;21038;-76
2022/05/16 04:23:05;;;;;;;21.60;8.20;;;;;;;;;;5094115;28;20446;-74
2022/05/16 04:25:33;;;;;;;18.07;7.40;;;;;;;;;;5093694;28;20453;-74
2022/05/16 04:28:00;;;;;;;17.63;8.30;;;;;;;;;;5093473;28;20450;-74
2022/05/16 04:30:28;;;;;;;16.00;6.40;;;;;;;;;;5093839;28;20478;-74
2022/05/16 04:32:57;;;;;;;17.87;7.00;;;;;;;;;;5093806;28;20436;-74
2022/05/16 04:35:25;;;;;;;15.90;5.70;;;;;;;;;;5093879;28;20500;-74
2022/05/16 04:37:53;;;;;;;15.27;5.80;;;;;;;;;;5094034;28;20426;-75
2022/05/16 04:40:21;;;;;;;18.33;6.40;;;;;;;;;;5093888;28;20437;-74
2022/05/16 04:42:48;;;;;;;15.97;5.80;;;;;;;;;;5094226;28;20842;-74
2022/05/16 04:45:17;;;;;;;16.10;5.43;;;;;;;;;;5093333;28;20457;-74
2022/05/16 04:47:45;;;;;;;16.20;5.70;;;;;;;;;;5093539;28;20449;-74
2022/05/16 04:50:15;;;;;;;15.80;5.83;;;;;;;;;;5093478;28;20433;-75
2022/05/16 04:52:43;;;;;;;17.37;5.77;;;;;;;;;;5093840;28;20462;-74
2022/05/16 04:55:12;;;;;;;18.27;6.10;;;;;;;;;;5093227;28;20434;-75
2022/05/16 04:57:40;;;;;;;14.93;5.43;;;;;;;;;;5093294;28;20446;-75
2022/05/16 05:00:08;;;;;;;17.27;5.93;;;;;;;;;;5093086;28;20988;-75
2022/05/16 05:02:35;;;;;;;17.07;5.57;;;;;;;;;;5093388;28;20458;-74
2022/05/16 05:05:03;;;;;;;23.20;6.30;;;;;;;;;;5093181;28;20442;-74
2022/05/16 05:07:32;;;;;;;16.37;5.23;;;;;;;;;;5092866;28;20506;-75
2022/05/16 05:15:30;;;;;;;16.50;6.17;;;;;;;;;;5092886;28;20417;-75
2022/05/16 05:17:58;;;;;;;16.60;5.60;;;;;;;;;;5093037;28;20478;-75
2022/05/16 05:20:25;;;;;;;15.50;5.30;;;;;;;;;;5092881;28;20461;-75
2022/05/16 05:22:55;;;;;;;15.73;5.40;;;;;;;;;;5092742;28;20824;-74
2022/05/16 05:25:22;;;;;;;17.40;5.43;;;;;;;;;;5092893;28;20442;-74
2022/05/16 05:27:50;;;;;;;15.00;5.40;;;;;;;;;;5093046;28;20822;-74
2022/05/16 05:30:19;;;;;;;17.50;7.03;;;;;;;;;;5092898;28;20450;-75
2022/05/16 05:32:47;;;;;;;17.37;6.23;;;;;;;;;;5092581;28;20837;-75
2022/05/16 05:35:15;;;;;;;16.30;6.53;;;;;;;;;;5092555;28;20444;-75
2022/05/16 05:37:43;;;;;;;19.23;7.50;;;;;;;;;;5092644;28;20446;-75
2022/05/16 05:40:13;;;;;;;19.77;8.43;;;;;;;;;;5092655;28;20876;-74
2022/05/16 05:42:41;;;;;;;17.93;7.03;;;;;;;;;;5092356;28;20454;-75
2022/05/16 05:45:09;;;;;;;18.20;7.60;;;;;;;;;;5092492;28;20446;-75
2022/05/16 05:47:37;;;;;;;19.83;8.70;;;;;;;;;;5091657;28;20510;-75
2022/05/16 05:50:05;;;;;;;20.10;8.30;;;;;;;;;;5092385;28;20457;-75
2022/05/16 05:52:32;;;;;;;20.77;9.67;;;;;;;;;;5092167;28;20480;-75
2022/05/16 05:54:59;;;;;;;20.73;9.63;;;;;;;;;;5092381;28;20450;-75
2022/05/16 05:57:30;;;;;;;21.87;9.63;;;;;;;;;;5092066;28;20957;-75
2022/05/16 05:59:58;;;;;;;22.53;9.30;;;;;;;;;;5092108;28;20439;-75
2022/05/16 06:02:25;;;;;;;22.47;9.50;;;;;;;;;;5092282;28;20474;-75
2022/05/16 06:04:53;;;;;;;20.43;9.73;;;;;;;;;;5092105;28;20471;-75
2022/05/16 06:07:21;;;;;;;20.20;9.00;;;;;;;;;;5092010;28;20831;-75
2022/05/16 06:09:48;;;;;;;20.13;9.53;;;;;;;;;;5092045;28;20944;-75
2022/05/16 06:12:15;;;;;;;20.10;9.00;;;;;;;;;;5092031;28;20582;-75
2022/05/16 06:14:45;;;;;;;20.97;9.63;;;;;;;;;;5092234;28;20430;-75
2022/05/16 06:17:13;;;;;;;19.87;8.73;;;;;;;;;;5092029;28;20540;-75
2022/05/16 06:19:40;;;;;;;18.40;8.20;;;;;;;;;;5092746;28;20438;-75
2022/05/16 06:22:08;;;;;;;19.10;7.90;;;;;;;;;;5092077;28;20447;-75
2022/05/16 06:27:20;;;;;;;29.30;8.73;;;;;;;;;;5092040;28;20432;-75
2022/05/16 06:29:49;;;;;;;19.70;8.27;;;;;;;;;;5091344;28;20472;-75
2022/05/16 06:32:16;;;;;;;17.50;8.00;;;;;;;;;;5092411;28;20487;-75
2022/05/16 06:34:44;;;;;;;16.53;6.20;;;;;;;;;;5092079;28;20441;-75
2022/05/16 06:37:12;;;;;;;20.53;7.80;;;;;;;;;;5092092;28;20441;-75
2022/05/16 06:39:39;;;;;;;19.30;8.20;;;;;;;;;;5092011;28;20469;-75
2022/05/16 06:42:07;;;;;;;19.43;8.30;;;;;;;;;;5091747;28;20445;-75
2022/05/16 06:44:34;;;;;;;19.63;6.90;;;;;;;;;;5092012;28;20434;-75
2022/05/16 06:47:04;;;;;;;17.10;7.20;;;;;;;;;;5092157;28;20438;-75
2022/05/16 06:49:31;;;;;;;18.00;8.27;;;;;;;;;;5091562;28;20955;-75
2022/05/16 06:51:59;;;;;;;18.03;6.67;;;;;;;;;;5092038;28;20477;-75
2022/05/16 06:54:26;;;;;;;18.47;7.97;;;;;;;;;;5091638;28;20442;-75
2022/05/16 06:56:54;;;;;;;16.97;7.80;;;;;;;;;;5091631;28;20454;-75
2022/05/16 06:59:21;;;;;;;16.10;6.70;;;;;;;;;;5092676;28;20438;-75
2022/05/16 07:01:49;;;;;;;17.10;7.97;;;;;;;;;;5095752;28;20460;-76
2022/05/16 07:04:18;;;;;;;18.87;7.50;;;;;;;;;;5095413;28;20442;-75
2022/05/16 07:06:45;;;;;;;18.50;8.20;;;;;;;;;;5095338;28;20972;-76
2022/05/16 07:09:13;;;;;;;18.73;8.13;;;;;;;;;;5095379;28;20445;-75
2022/05/16 07:11:40;;;;;;;18.47;6.57;;;;;;;;;;5095554;28;20547;-76
2022/05/16 07:14:08;;;;;;;19.43;7.20;;;;;;;;;;5095505;28;20453;-76
2022/05/16 07:16:35;;;;;;;17.77;6.97;;;;;;;;;;5094625;28;20856;-76
2022/05/16 07:19:02;;;;;;;17.20;7.93;;;;;;;;;;5095634;28;20441;-75
2022/05/16 07:21:32;;;;;;;17.13;7.40;;;;;;;;;;5094855;28;20833;-75
2022/05/16 07:23:59;;;;;;;17.53;6.40;;;;;;;;;;5094993;28;20438;-75
2022/05/16 07:29:12;;;;;;;17.47;6.23;;;;;;;;;;5094855;28;21067;-76
2022/05/16 07:31:40;;;;;;;16.80;6.67;;;;;;;;;;5094842;28;20488;-76
2022/05/16 07:34:07;;;;;;;16.37;5.53;;;;;;;;;;5094954;28;20434;-76
2022/05/16 07:36:37;;;;;;;16.57;6.73;;;;;;;;;;5094877;28;20446;-76
2022/05/16 07:39:04;;;;;;;16.67;6.07;;;;;;;;;;5094786;28;20437;-76
2022/05/16 07:41:32;;;;;;;17.60;5.80;;;;;;;;;;5094583;28;20448;-76
2022/05/16 07:44:00;;;;;;;20.70;6.40;;;;;;;;;;5094727;28;20803;-75
2022/05/16 07:46:27;;;;;;;17.17;6.73;;;;;;;;;;5094705;28;20449;-76
2022/05/16 07:48:55;;;;;;;21.50;6.10;;;;;;;;;;5094773;28;20441;-76
2022/05/16 07:51:22;;;;;;;14.90;5.10;;;;;;;;;;5094232;28;20469;-76
2022/05/16 07:53:51;;;;;;;15.57;6.73;;;;;;;;;;5094934;28;20449;-75
2022/05/16 07:56:19;;;;;;;16.47;5.97;;;;;;;;;;5094368;28;20452;-76
2022/05/16 07:58:47;;;;;;;16.00;5.80;;;;;;;;;;5094429;28;20434;-76
2022/05/16 08:01:14;;;;;;;16.37;5.87;;;;;;;;;;5094267;28;20485;-76
2022/05/16 08:03:41;;;;;;;17.30;5.97;;;;;;;;;;5094252;28;20442;-76
2022/05/16 08:06:09;;;;;;;17.47;5.90;;;;;;;;;;5094282;28;20966;-76
2022/05/16 08:11:23;;;;;;;16.90;6.70;;;;;;;;;;5093797;28;20984;-76
2022/05/16 08:13:51;;;;;;;16.00;6.30;;;;;;;;;;5094276;28;21007;-76
2022/05/16 08:16:18;;;;;;;19.80;6.23;;;;;;;;;;5094035;28;20464;-77
2022/05/16 08:18:46;;;;;;;17.73;5.83;;;;;;;;;;5094570;28;20434;-76
2022/05/16 08:21:13;;;;;;;16.10;5.87;;;;;;;;;;5094069;28;20450;-76
2022/05/16 08:23:41;;;;;;;16.07;6.30;;;;;;;;;;5094096;28;20452;-76
2022/05/16 08:26:09;;;;;;;16.07;5.67;;;;;;;;;;5093841;28;20452;-76
2022/05/16 08:28:39;;;;;;;19.27;5.53;;;;;;;;;;5093490;28;20465;-76
2022/05/16 08:31:07;;;;;;;16.93;6.23;;;;;;;;;;5093967;28;20492;-77
2022/05/16 08:33:35;;;;;;;21.90;6.30;;;;;;;;;;5093701;28;20484;-76
2022/05/16 08:41:32;;;;;;;14.67;5.07;;;;;;;;;;5093558;28;20957;-76
2022/05/16 08:44:07;;;;;;;16.10;5.70;;;;;;;;;;5093743;28;20518;-76
2022/05/16 08:46:36;;;;;;;16.60;5.10;;;;;;;;;;5093479;28;21007;-76
2022/05/16 08:49:10;;;;;;;16.73;5.90;;;;;;;;;;5093510;28;20442;-76
2022/05/16 08:51:38;;;;;;;14.97;5.17;;;;;;;;;;5093109;28;20488;-76
2022/05/16 08:54:09;;;;;;;16.30;5.00;;;;;;;;;;5093618;28;20438;-76
2022/05/16 08:56:38;;;;;;;21.10;7.40;;;;;;;;;;5093581;28;20440;-76
2022/05/16 08:59:09;;;;;;;14.60;5.27;;;;;;;;;;5093209;28;20532;-76
2022/05/16 09:01:38;;;;;;;16.27;5.43;;;;;;;;;;5093021;28;20482;-76
2022/05/16 09:04:07;;;;;;;17.37;5.33;;;;;;;;;;5093068;28;20457;-76
2022/05/16 09:06:38;;;;;;;18.23;6.00;;;;;;;;;;5093190;28;20448;-76
2022/05/16 09:09:08;;;;;;;16.70;5.60;;;;;;;;;;5093126;28;20438;-76
2022/05/16 09:11:39;;;;;;;15.63;5.90;;;;;;;;;;5092663;28;20962;-76
2022/05/16 09:14:13;;;;;;;15.33;5.33;;;;;;;;;;5093053;28;20441;-76
2022/05/16 09:16:46;;;;;;;17.50;5.80;;;;;;;;;;5093047;28;20470;-76
2022/05/16 09:19:24;;;;;;;16.47;5.70;;;;;;;;;;5092699;28;20452;-76
2022/05/16 09:21:58;;;;;;;16.00;5.60;;;;;;;;;;5092449;28;20463;-76
2022/05/16 09:24:29;;;;;;;14.83;4.93;;;;;;;;;;5092783;28;20448;-76
2022/05/16 09:27:00;;;;;;;17.03;5.03;;;;;;;;;;5092739;28;20449;-76
2022/05/16 09:29:32;;;;;;;15.67;5.20;;;;;;;;;;5092153;28;20469;-76
2022/05/16 09:32:04;;;;;;;15.40;4.73;;;;;;;;;;5092581;28;20894;-76
2022/05/16 09:34:31;;;;;;;15.17;4.87;;;;;;;;;;5093160;28;20450;-76
2022/05/16 09:36:59;;;;;;;18.20;5.80;;;;;;;;;;5092604;28;20443;-76
2022/05/16 09:39:31;;;;;;;16.27;5.47;;;;;;;;;;5092190;28;20482;-76
2022/05/16 09:42:02;;;;;;;16.00;5.43;;;;;;;;;;5092561;28;20522;-76
2022/05/16 09:44:32;;;;;;;16.80;5.20;;;;;;;;;;5092780;28;20455;-76
2022/05/16 09:47:30;;;;;;;15.73;5.50;;;;;;;;;;5092577;28;20960;-76
2022/05/16 09:50:09;;;;;;;15.80;5.90;;;;;;;;;;5010539;28;20527;-76
2022/05/16 09:52:38;;;;;;;19.10;6.07;;;;;;;;;;5080499;28;20488;-76
2022/05/16 09:55:06;;;;;;;19.20;6.43;;;;;;;;;;5092585;28;20529;-76
2022/05/16 09:57:48;;;;;;;20.00;5.53;;;;;;;;;;5091966;28;20448;-76
2022/05/16 10:00:18;;;;;;;16.80;5.37;;;;;;;;;;5092095;28;20452;-76
2022/05/16 10:02:55;;;;;;;17.73;5.63;;;;;;;;;;5092202;28;20447;-76
2022/05/16 10:05:25;;;;;;;17.13;5.80;;;;;;;;;;5092024;28;20537;-76
2022/05/16 10:07:53;;;;;;;18.47;5.60;;;;;;;;;;5092140;28;20438;-76
2022/05/16 10:10:22;;;;;;;16.70;5.77;;;;;;;;;;5092332;28;20927;-76
2022/05/16 10:12:51;;;;;;;16.33;5.67;;;;;;;;;;5091954;28;20493;-76
2022/05/16 10:15:21;;;;;;;17.10;4.97;;;;;;;;;;5091967;28;20453;-76
2022/05/16 10:17:49;;;;;;;20.27;5.87;;;;;;;;;;5092287;28;20489;-76
2022/05/16 10:20:20;;;;;;;14.93;4.90;;;;;;;;;;5092147;28;20816;-76
2022/05/16 10:22:47;;;;;;;15.20;4.97;;;;;;;;;;5091996;28;20951;-76
2022/05/16 10:25:17;;;;;;;15.87;5.40;;;;;;;;;;5091646;28;20440;-76
2022/05/16 10:27:46;;;;;;;17.23;5.20;;;;;;;;;;5091857;28;20451;-76
2022/05/16 10:30:20;;;;;;;16.47;5.77;;;;;;;;;;5091620;28;20541;-76
2022/05/16 10:35:38;;;;;;;17.53;5.07;;;;;;;;;;5095925;28;20445;-76
2022/05/16 10:38:08;;;;;;;20.40;5.40;;;;;;;;;;5096098;28;20570;-76
2022/05/16 10:40:37;;;;;;;17.13;4.77;;;;;;;;;;5095955;28;20449;-76
2022/05/16 10:43:11;;;;;;;16.03;5.10;;;;;;;;;;5095867;28;20968;-76
2022/05/16 10:45:39;;;;;;;15.13;5.20;;;;;;;;;;5095613;28;20434;-76
2022/05/16 10:48:10;;;;;;;16.97;4.63;;;;;;;;;;5095841;28;20441;-76
2022/05/16 10:50:46;;;;;;;16.10;4.67;;;;;;;;;;5096380;28;20441;-76
2022/05/16 10:53:15;;;;;;;14.80;4.57;;;;;;;;;;5095947;28;20572;-76
2022/05/16 10:55:45;;;;;;;17.27;5.07;;;;;;;;;;5095786;28;20445;-76
2022/05/16 10:58:20;;;;;;;15.10;4.60;;;;;;;;;;5095926;28;20438;-76
2022/05/16 11:00:50;;;;;;;18.23;4.90;;;;;;;;;;5095690;28;20510;-76
2022/05/16 11:03:32;;;;;;;18.00;4.70;;;;;;;;;;5095282;28;20532;-76
2022/05/16 11:06:07;;;;;;;20.03;3.87;;;;;;;;;;5095761;28;20441;-76
2022/05/16 11:08:41;;;;;;;15.83;4.30;;;;;;;;;;5095671;28;20448;-77
2022/05/16 11:11:12;;;;;;;15.10;4.20;;;;;;;;;;5095485;28;20833;-76
2022/05/16 11:13:44;;;;;;;17.30;4.70;;;;;;;;;;5096095;28;20509;-77
2022/05/16 11:16:13;;;;;;;20.47;4.87;;;;;;;;;;5095946;28;20445;-76
2022/05/16 11:18:45;;;;;;;15.00;4.43;;;;;;;;;;5095282;28;20444;-76
2022/05/16 11:21:22;;;;;;;15.37;4.50;;;;;;;;;;5095267;28;20437;-77
2022/05/16 11:23:52;;;;;;;17.10;4.53;;;;;;;;;;5095114;28;20438;-76
2022/05/16 11:26:22;;;;;;;14.40;4.50;;;;;;;;;;5094997;28;20480;-76
2022/05/16 11:31:45;;;;;;;18.73;4.60;;;;;;;;;;5095201;28;21056;-76
2022/05/16 11:34:16;;;;;;;14.00;3.87;;;;;;;;;;5095029;28;20961;-76
2022/05/16 11:36:47;;;;;;;16.70;4.60;;;;;;;;;;5094846;28;20442;-77
2022/05/16 11:39:18;;;;;;;16.87;3.97;;;;;;;;;;5094904;28;20457;-77
2022/05/16 11:41:52;;;;;;;16.23;4.90;;;;;;;;;;5095214;28;20442;-77
2022/05/16 11:44:28;;;;;;;16.07;4.90;;;;;;;;;;5094557;28;20446;-77
2022/05/16 11:46:59;;;;;;;14.37;3.93;;;;;;;;;;5094739;28;20504;-77
2022/05/16 11:49:33;;;;;;;19.67;4.40;;;;;;;;;;5094717;28;20430;-76
2022/05/16 11:52:27;;;;;;;14.80;4.17;;;;;;;;;;5094896;28;20441;-76
2022/05/16 11:54:58;;;;;;;15.30;4.57;;;;;;;;;;5094389;28;20862;-77
2022/05/16 12:03:13;;;;;;;14.57;4.17;;;;;;;;;;5094519;28;20513;-77
2022/05/16 12:05:44;;;;;;;21.37;4.70;;;;;;;;;;5094558;28;20481;-77
2022/05/16 12:08:32;;;;;;;15.03;4.70;;;;;;;;;;5094967;28;20438;-77
2022/05/16 12:11:10;;;;;;;17.67;4.93;;;;;;;;;;5094431;28;20492;-77
2022/05/16 12:13:39;;;;;;;18.87;5.53;;;;;;;;;;5093890;28;20478;-77
2022/05/16 12:16:18;;;;;;;14.23;3.87;;;;;;;;;;5094242;28;20486;-76
2022/05/16 12:18:48;;;;;;;16.27;5.00;;;;;;;;;;5094449;28;20812;-76
2022/05/16 12:21:24;;;;;;;15.07;4.43;;;;;;;;;;5093936;28;20466;-76
2022/05/16 12:24:02;;;;;;;13.80;4.20;;;;;;;;;;5093959;28;20457;-76
2022/05/16 12:26:34;;;;;;;15.37;4.70;;;;;;;;;;5093958;28;20450;-76
2022/05/16 12:29:14;;;;;;;13.70;4.03;;;;;;;;;;5093689;28;20462;-76
2022/05/16 12:31:43;;;;;;;15.93;4.10;;;;;;;;;;5093933;28;20966;-76
2022/05/16 12:34:10;;;;;;;16.43;4.80;;;;;;;;;;5093648;28;20478;-76
2022/05/16 12:36:40;;;;;;;18.20;4.80;;;;;;;;;;5093797;28;20817;-76
2022/05/16 12:39:11;;;;;;;14.93;4.30;;;;;;;;;;5093600;28;20452;-77
2022/05/16 12:41:57;;;;;;;15.53;4.50;;;;;;;;;;5093438;28;20511;-76
2022/05/16 12:44:47;;;;;;;15.00;4.10;;;;;;;;;;5093830;28;20448;-76
2022/05/16 12:47:33;;;;;;;14.70;4.50;;;;;;;;;;5093328;28;20445;-76
2022/05/16 12:50:16;;;;;;;14.77;4.37;;;;;;;;;;5093468;28;20442;-76
2022/05/16 12:52:59;;;;;;;16.57;5.30;;;;;;;;;;5093597;28;20533;-76
2022/05/16 12:55:35;;;;;;;19.83;4.90;;;;;;;;;;5093349;28;20434;-76
2022/05/16 12:58:07;;;;;;;14.13;4.63;;;;;;;;;;5092255;28;21005;-76
2022/05/16 13:00:40;;;;;;;16.27;4.67;;;;;;;;;;5093649;28;20438;-76
2022/05/16 13:03:38;;;;;;;15.60;4.70;;;;;;;;;;5093550;28;20444;-76
2022/05/16 13:06:08;;;;;;;22.80;5.10;;;;;;;;;;5093651;28;20438;-76
2022/05/16 13:08:42;;;;;;;23.27;5.87;;;;;;;;;;5093166;28;20495;-77
2022/05/16 13:11:18;;;;;;;15.33;3.93;;;;;;;;;;5093078;28;20441;-76
2022/05/16 13:13:56;;;;;;;14.70;4.37;;;;;;;;;;5092851;28;21036;-77
2022/05/16 13:16:26;;;;;;;14.93;4.40;;;;;;;;;;5093048;28;20450;-76
2022/05/16 13:18:57;;;;;;;15.33;4.10;;;;;;;;;;5093253;28;20810;-76
2022/05/16 13:21:34;;;;;;;15.40;4.03;;;;;;;;;;5092687;28;21061;-76
2022/05/16 13:24:07;;;;;;;15.70;4.70;;;;;;;;;;5092797;28;20963;-76
2022/05/16 13:29:26;;;;;;;18.03;4.37;;;;;;;;;;5092498;28;20992;-76
2022/05/16 13:31:55;;;;;;;14.70;4.43;;;;;;;;;;5092975;28;20473;-76
2022/05/16 13:34:30;;;;;;;15.43;4.10;;;;;;;;;;5092803;28;20863;-76
2022/05/16 13:36:57;;;;;;;20.97;4.97;;;;;;;;;;5092686;28;20445;-76
2022/05/16 13:39:27;;;;;;;16.40;4.73;;;;;;;;;;5092528;28;20468;-76
2022/05/16 13:41:59;;;;;;;15.87;4.40;;;;;;;;;;5092755;28;20529;-76
2022/05/16 13:44:27;;;;;;;14.60;4.53;;;;;;;;;;5092562;28;20479;-76
2022/05/16 13:46:54;;;;;;;16.70;4.87;;;;;;;;;;5092658;28;20441;-76
2022/05/16 13:49:22;;;;;;;18.50;5.47;;;;;;;;;;5092312;28;20439;-76
2022/05/16 13:51:53;;;;;;;18.13;5.70;;;;;;;;;;5092658;28;20437;-76
2022/05/16 13:54:22;;;;;;;17.37;5.57;;;;;;;;;;5092557;28;20559;-76
2022/05/16 13:56:52;;;;;;;21.83;5.40;;;;;;;;;;5092374;28;20496;-76
2022/05/16 13:59:23;;;;;;;17.13;5.27;;;;;;;;;;5092094;28;20824;-76
2022/05/16 14:01:51;;;;;;;15.90;5.03;;;;;;;;;;5092267;28;20941;-76
2022/05/16 14:04:20;;;;;;;16.77;5.37;;;;;;;;;;5092575;28;20441;-76
2022/05/16 14:06:50;;;;;;;17.17;5.27;;;;;;;;;;5092433;28;20438;-76
2022/05/16 14:09:20;;;;;;;17.60;6.00;;;;;;;;;;5091649;28;20438;-76
2022/05/16 14:11:48;;;;;;;19.13;5.57;;;;;;;;;;5092207;28;20442;-76
2022/05/16 14:14:20;;;;;;;25.57;5.30;;;;;;;;;;5091997;28;20507;-76
2022/05/16 14:16:51;;;;;;;21.73;6.10;;;;;;;;;;5091966;28;20481;-76
2022/05/16 14:19:31;;;;;;;18.70;4.57;;;;;;;;;;5092061;28;20464;-76
2022/05/16 14:22:02;;;;;;;21.87;6.30;;;;;;;;;;5092094;28;20434;-76
2022/05/16 14:24:33;;;;;;;15.47;4.90;;;;;;;;;;5091974;28;20507;-76
2022/05/16 14:27:00;;;;;;;22.67;5.90;;;;;;;;;;5091945;28;20464;-76
2022/05/16 14:29:32;;;;;;;18.13;5.30;;;;;;;;;;5091561;28;20493;-76
2022/05/16 14:32:07;;;;;;;19.23;5.70;;;;;;;;;;5092044;28;20437;-76
2022/05/16 14:34:36;;;;;;;19.70;5.90;;;;;;;;;;5091932;28;20484;-76
2022/05/16 14:37:06;;;;;;;16.00;5.30;;;;;;;;;;5091776;28;20449;-76
2022/05/16 14:39:41;;;;;;;17.27;5.33;;;;;;;;;;5091565;28;20451;-76
2022/05/16 14:42:10;;;;;;;19.90;5.83;;;;;;;;;;5091849;28;20433;-76
2022/05/16 14:44:41;;;;;;;15.83;4.50;;;;;;;;;;5092120;28;20443;-76
2022/05/16 14:47:20;;;;;;;17.57;5.03;;;;;;;;;;5091719;28;20454;-76
2022/05/16 14:49:48;;;;;;;14.63;3.53;;;;;;;;;;5091620;28;20449;-75
2022/05/16 14:52:19;;;;;;;17.37;4.90;;;;;;;;;;5092441;28;20491;-75
2022/05/16 14:54:50;;;;;;;15.93;4.57;;;;;;;;;;5092188;28;20485;-75
2022/05/16 14:57:17;;;;;;;18.07;5.10;;;;;;;;;;5091766;28;20436;-76
2022/05/16 14:59:47;;;;;;;15.93;4.60;;;;;;;;;;5091708;28;20440;-75
2022/05/16 15:05:00;;;;;;;20.53;5.50;;;;;;;;;;5092038;28;20507;-75
2022/05/16 15:07:28;;;;;;;19.57;5.30;;;;;;;;;;5091315;28;20442;-75
2022/05/16 15:09:55;;;;;;;16.10;4.63;;;;;;;;;;5091819;28;20813;-76
2022/05/16 15:12:23;;;;;;;15.97;5.27;;;;;;;;;;5091574;28;20432;-75
2022/05/16 15:14:52;;;;;;;16.37;5.73;;;;;;;;;;5091337;28;20574;-76
2022/05/16 15:17:20;;;;;;;20.10;5.73;;;;;;;;;;5091426;28;20564;-75
2022/05/16 15:19:47;;;;;;;15.43;4.77;;;;;;;;;;5092382;28;20468;-75
2022/05/16 15:22:17;;;;;;;20.90;5.80;;;;;;;;;;5095162;28;20875;-76
2022/05/16 15:24:48;;;;;;;16.60;4.90;;;;;;;;;;5095033;28;20461;-76
2022/05/16 15:27:15;;;;;;;16.57;5.43;;;;;;;;;;5094954;28;20460;-76
2022/05/16 15:29:43;;;;;;;16.13;5.07;;;;;;;;;;5094685;28;20475;-75
2022/05/16 15:32:14;;;;;;;15.43;5.40;;;;;;;;;;5095371;28;20428;-75
2022/05/16 15:34:41;;;;;;;17.07;4.20;;;;;;;;;;5094868;28;21062;-76